Time;durP1;ratioP1;P1;durP2;ratioP2;P2;SDS_P1;SDS_P2;PMS_P1;PMS_P2;Temp;Humidity;BMP_temperature;BMP_pressure;BME280_temperature;BME280_humidity;BME280_pressure;Samples;Min_cycle;Max_cycle;Signal;HPM_P1;HPM_P2
2023/10/08 00:02:22;;;;;;;2.85;2.03;;;;;;;20.41;42.29;93894.69;6071099;23;20049;-94
2023/10/08 00:04:50;;;;;;;6.00;2.20;;;;;;;20.42;42.23;93893.44;6072474;23;20026;-95
2023/10/08 00:07:21;;;;;;;4.20;2.10;;;;;;;20.37;42.29;93888.00;6069997;23;20018;-94
2023/10/08 00:09:51;;;;;;;4.35;1.92;;;;;;;20.37;42.53;93885.25;6071918;23;20476;-94
2023/10/08 00:12:17;;;;;;;3.05;2.03;;;;;;;20.37;42.45;93883.25;6071009;23;20510;-94
2023/10/08 00:14:44;;;;;;;4.10;2.33;;;;;;;20.37;42.23;93880.50;6071545;23;20022;-94
2023/10/08 00:17:11;;;;;;;4.65;2.38;;;;;;;20.35;42.41;93888.47;6069999;23;20018;-94
2023/10/08 00:19:38;;;;;;;4.10;2.33;;;;;;;20.40;42.11;93875.97;6071307;23;20105;-94
2023/10/08 00:22:07;;;;;;;4.43;2.30;;;;;;;20.41;42.17;93871.97;6070578;23;20100;-95
2023/10/08 00:24:33;;;;;;;4.28;2.10;;;;;;;20.37;42.38;93875.00;6072227;23;20043;-93
2023/10/08 00:27:00;;;;;;;3.97;2.35;;;;;;;20.35;42.34;93863.75;6071152;23;20454;-93
2023/10/08 00:29:26;;;;;;;3.03;2.10;;;;;;;20.36;42.41;93870.75;6069730;23;20041;-95
2023/10/08 00:31:51;;;;;;;3.67;2.28;;;;;;;20.35;42.48;93865.78;6071733;23;20092;-95
2023/10/08 00:34:19;;;;;;;3.70;2.10;;;;;;;20.34;42.61;93872.53;6070589;23;20022;-93
2023/10/08 00:36:48;;;;;;;3.17;2.08;;;;;;;20.35;42.52;93861.00;6070844;23;20021;-94
2023/10/08 00:39:16;;;;;;;3.03;2.15;;;;;;;20.37;42.53;93855.78;6070295;23;20524;-93
2023/10/08 00:41:43;;;;;;;5.60;2.40;;;;;;;20.37;42.54;93866.03;6071764;23;20077;-95
2023/10/08 00:44:12;;;;;;;3.63;2.00;;;;;;;20.35;42.37;93857.56;6070172;23;20505;-94
2023/10/08 00:46:49;;;;;;;4.47;2.70;;;;;;;20.35;42.69;93866.50;6071574;23;20017;-93
2023/10/08 00:49:24;;;;;;;4.45;2.65;;;;;;;20.36;42.45;93870.00;6072468;23;20362;-93
2023/10/08 00:52:40;;;;;;;4.68;2.40;;;;;;;20.37;42.37;93868.75;6071556;23;20350;-95
2023/10/08 00:57:29;;;;;;;4.40;2.75;;;;;;;20.37;42.51;93866.03;6097655;23;20583;-95
2023/10/08 00:59:56;;;;;;;4.73;2.73;;;;;;;20.33;42.57;93852.56;6071368;23;20018;-93
2023/10/08 01:02:27;;;;;;;4.07;2.22;;;;;;;20.33;42.60;93863.56;6070314;23;20244;-95
2023/10/08 01:04:54;;;;;;;3.58;2.38;;;;;;;20.36;42.59;93853.50;6071691;23;20010;-94
2023/10/08 01:07:19;;;;;;;3.95;2.38;;;;;;;20.36;42.55;93862.50;6069577;23;20029;-95
2023/10/08 01:09:50;;;;;;;4.55;2.30;;;;;;;20.35;42.60;93863.75;6071331;23;20018;-94
2023/10/08 01:12:15;;;;;;;;;;;;;;;20.41;42.61;93858.25;6071602;23;20028;-93
2023/10/08 01:14:43;;;;;;;4.38;2.75;;;;;;;20.36;42.60;93856.25;6094812;23;19912;-94
2023/10/08 01:17:16;;;;;;;3.42;2.25;;;;;;;20.34;42.36;93854.06;6069724;23;20017;-95
2023/10/08 01:19:46;;;;;;;3.35;2.05;;;;;;;20.33;42.65;93836.09;6071031;23;20018;-95
2023/10/08 01:22:18;;;;;;;4.28;2.67;;;;;;;20.33;42.66;93849.81;6069864;23;20018;-94
2023/10/08 01:24:45;;;;;;;5.32;2.42;;;;;;;20.35;42.48;93852.06;6072725;23;20832;-96
2023/10/08 01:27:11;;;;;;;4.15;2.50;;;;;;;20.35;42.84;93852.78;6070732;23;20026;-93
2023/10/08 01:29:44;;;;;;;3.85;2.30;;;;;;;20.33;42.55;93832.59;6070840;23;20081;-94
2023/10/08 01:32:11;;;;;;;3.45;2.10;;;;;;;20.33;42.60;93838.84;6070530;23;20084;-94
2023/10/08 01:34:37;;;;;;;3.90;2.63;;;;;;;20.33;42.74;93843.59;6071405;23;20469;-94
2023/10/08 01:37:08;;;;;;;4.28;2.83;;;;;;;20.35;42.58;93830.09;6070935;23;20045;-94
2023/10/08 01:39:36;;;;;;;5.15;2.30;;;;;;;20.35;42.64;93841.06;6071376;23;20331;-94
2023/10/08 01:42:01;;;;;;;5.03;2.92;;;;;;;20.32;42.61;93836.59;6070528;23;20078;-94
2023/10/08 01:44:29;;;;;;;3.63;2.22;;;;;;;20.33;42.71;93830.59;6069359;23;20454;-95
2023/10/08 01:46:58;;;;;;;3.63;2.63;;;;;;;20.33;42.59;93832.59;6071594;23;20014;-93
2023/10/08 01:49:29;;;;;;;7.72;2.40;;;;;;;20.34;42.73;93834.09;6071029;23;20556;-92
2023/10/08 01:51:54;;;;;;;4.28;2.50;;;;;;;20.31;42.63;93829.63;6071224;23;20041;-94
2023/10/08 01:54:21;;;;;;;3.83;2.15;;;;;;;20.33;42.61;93827.09;6070164;23;20018;-94
2023/10/08 01:56:46;;;;;;;4.65;2.25;;;;;;;20.33;42.62;93843.59;6070989;23;20028;-95
2023/10/08 01:59:13;;;;;;;4.50;2.47;;;;;;;20.34;42.76;93831.34;6069436;23;20022;-94
2023/10/08 02:01:40;;;;;;;4.18;2.67;;;;;;;20.32;42.68;93828.38;6071496;23;20025;-93
2023/10/08 02:04:09;;;;;;;3.60;2.33;;;;;;;20.33;42.71;93818.88;6071456;23;20018;-93
2023/10/08 02:06:35;;;;;;;3.95;2.30;;;;;;;20.32;42.64;93831.13;6073140;23;20382;-94
2023/10/08 02:09:07;;;;;;;4.40;2.13;;;;;;;20.31;42.61;93816.63;6071569;23;20025;-94
2023/10/08 02:11:50;;;;;;;3.97;2.38;;;;;;;20.33;42.62;93825.09;6073590;23;20020;-93
2023/10/08 02:14:17;;;;;;;4.35;2.22;;;;;;;20.33;42.95;93816.13;6071418;23;20018;-95
2023/10/08 02:16:43;;;;;;;3.42;2.20;;;;;;;20.30;42.86;93825.38;6072676;23;20025;-94
2023/10/08 02:19:10;;;;;;;5.65;2.42;;;;;;;20.32;42.70;93831.84;6071209;23;20030;-94
2023/10/08 02:21:39;;;;;;;6.10;2.10;;;;;;;20.32;42.72;93837.34;6071206;23;20026;-95
2023/10/08 02:24:07;;;;;;;4.15;2.30;;;;;;;20.31;42.95;93833.13;6072061;23;20021;-94
2023/10/08 02:26:34;;;;;;;6.22;2.45;;;;;;;20.30;42.78;93844.59;6072757;23;20018;-95
2023/10/08 02:29:00;;;;;;;3.95;2.30;;;;;;;20.31;42.80;93835.13;6072042;23;20018;-95
2023/10/08 02:31:26;;;;;;;3.05;2.03;;;;;;;20.31;42.98;93846.84;6071493;23;20026;-94
2023/10/08 02:33:51;;;;;;;3.42;2.20;;;;;;;20.32;42.67;93834.59;6071940;23;20213;-93
2023/10/08 02:36:17;;;;;;;3.13;2.00;;;;;;;20.31;42.66;93848.84;6070744;23;20022;-93
2023/10/08 02:38:42;;;;;;;4.05;2.35;;;;;;;20.32;42.86;93847.59;6072002;23;20037;-94
2023/10/08 02:41:08;;;;;;;3.53;2.20;;;;;;;20.32;42.91;93845.59;6071142;23;20041;-93
2023/10/08 02:43:34;;;;;;;3.35;2.45;;;;;;;20.32;42.79;93844.84;6072130;23;20022;-94
2023/10/08 02:46:00;;;;;;;3.90;2.42;;;;;;;20.31;42.81;93835.13;6072398;23;20042;-93
2023/10/08 02:48:27;;;;;;;3.45;2.08;;;;;;;20.32;43.01;93847.59;6070732;23;20041;-95
2023/10/08 02:50:54;;;;;;;6.93;2.30;;;;;;;20.31;42.88;93824.88;6072236;23;20018;-95
2023/10/08 02:53:23;;;;;;;3.08;1.95;;;;;;;20.31;43.11;93833.13;6071247;23;20014;-93
2023/10/08 02:55:49;;;;;;;4.90;1.83;;;;;;;20.29;42.85;93830.13;6072793;23;20469;-94
2023/10/08 02:58:18;;;;;;;5.30;2.28;;;;;;;20.29;42.97;93832.13;6070543;23;20608;-94
2023/10/08 03:00:46;;;;;;;3.72;2.22;;;;;;;20.29;43.03;93843.13;6072682;23;20058;-94
2023/10/08 03:03:15;;;;;;;4.18;2.50;;;;;;;20.35;42.73;93825.31;6070860;23;20350;-94
2023/10/08 03:05:46;;;;;;;4.85;2.42;;;;;;;20.29;42.93;93823.91;6072299;23;20454;-95
2023/10/08 03:08:20;;;;;;;3.42;2.40;;;;;;;20.27;42.95;93809.94;6070183;23;20111;-93
2023/10/08 03:10:49;;;;;;;4.35;2.40;;;;;;;20.29;42.87;93819.16;6072899;23;20025;-93
2023/10/08 03:13:16;;;;;;;3.92;2.15;;;;;;;20.29;42.88;93823.91;6069724;23;20045;-93
2023/10/08 03:16:07;;;;;;;3.58;2.25;;;;;;;20.29;43.04;93827.38;6072094;23;20018;-94
2023/10/08 03:18:36;;;;;;;5.10;2.63;;;;;;;20.30;42.96;93841.88;6099776;23;20022;-93
2023/10/08 03:21:06;;;;;;;4.43;2.25;;;;;;;20.30;42.99;93833.63;6071250;23;20029;-94
2023/10/08 03:23:34;;;;;;;4.30;1.93;;;;;;;20.28;43.04;93828.66;6070773;23;20025;-94
2023/10/08 03:26:04;;;;;;;4.13;2.40;;;;;;;20.29;42.81;93815.66;6073239;23;20009;-94
2023/10/08 03:28:34;;;;;;;3.22;2.17;;;;;;;20.27;42.91;93813.44;6071315;23;20026;-95
2023/10/08 03:31:03;;;;;;;2.72;1.95;;;;;;;20.29;43.25;93810.16;6072498;23;20045;-93
2023/10/08 03:33:34;;;;;;;3.42;2.00;;;;;;;20.26;43.02;93808.44;6071342;23;20223;-95
2023/10/08 03:36:00;;;;;;;3.60;2.40;;;;;;;20.27;43.01;93807.19;6071934;23;20026;-95
2023/10/08 03:38:44;;;;;;;3.35;2.28;;;;;;;20.27;43.02;93805.19;6070726;23;20201;-93
2023/10/08 03:41:15;;;;;;;5.85;2.72;;;;;;;20.29;43.15;93810.16;6074057;23;20064;-93
2023/10/08 03:44:01;;;;;;;4.63;2.40;;;;;;;20.25;43.07;93815.94;6071776;23;20439;-94
2023/10/08 03:46:27;;;;;;;4.22;2.25;;;;;;;20.26;43.13;93813.94;6074616;23;20081;-93
2023/10/08 03:48:54;;;;;;;5.18;2.65;;;;;;;20.28;42.97;93820.41;6071433;23;20093;-95
2023/10/08 03:51:20;;;;;;;3.35;2.13;;;;;;;20.29;43.01;93810.91;6070713;23;20490;-95
2023/10/08 03:54:15;;;;;;;4.65;2.45;;;;;;;20.29;42.91;93810.91;6071502;23;20022;-94
2023/10/08 03:56:37;;;;;;;3.47;2.30;;;;;;;20.27;43.02;93812.69;6098881;23;20045;-94
2023/10/08 03:59:12;;;;;;;3.03;2.22;;;;;;;20.27;43.13;93818.91;6070419;23;20018;-94
2023/10/08 04:01:40;;;;;;;4.05;2.22;;;;;;;20.29;43.10;93812.91;6073692;23;20033;-93
2023/10/08 04:04:12;;;;;;;3.75;2.13;;;;;;;20.26;43.09;93819.44;6093123;23;20042;-94
2023/10/08 04:06:47;;;;;;;5.82;2.60;;;;;;;20.24;43.31;93819.94;6072599;23;20049;-94
2023/10/08 04:09:18;;;;;;;3.22;2.17;;;;;;;20.25;43.11;93810.44;6094029;23;20033;-95
2023/10/08 04:11:51;;;;;;;3.40;2.33;;;;;;;20.25;43.16;93804.22;6071971;23;20026;-94
2023/10/08 04:14:20;;;;;;;3.53;2.10;;;;;;;20.22;43.29;93805.97;6071817;23;20033;-95
2023/10/08 04:16:46;;;;;;;3.63;2.33;;;;;;;20.24;43.24;93805.47;6071987;23;20405;-95
2023/10/08 04:19:11;;;;;;;4.78;2.78;;;;;;;20.23;43.39;93803.97;6064916;23;20022;-92
2023/10/08 04:21:37;;;;;;;3.90;2.00;;;;;;;20.23;43.43;93809.47;6042176;23;20054;-95
2023/10/08 04:24:03;;;;;;;3.20;2.10;;;;;;;20.20;43.10;93805.75;6065697;23;20025;-92
2023/10/08 04:26:31;;;;;;;4.28;2.30;;;;;;;20.21;43.33;93815.47;6067373;23;20030;-94
2023/10/08 04:28:57;;;;;;;3.42;2.35;;;;;;;20.20;43.33;93800.25;6068045;23;20026;-94
2023/10/08 04:31:28;;;;;;;4.68;2.72;;;;;;;20.21;43.21;93799.00;6067347;23;20022;-94
2023/10/08 04:33:54;;;;;;;4.55;2.25;;;;;;;20.23;43.53;93806.72;6066917;23;20085;-94
2023/10/08 04:36:20;;;;;;;4.90;2.75;;;;;;;20.24;43.14;93803.47;6067206;23;20022;-94
2023/10/08 04:38:47;;;;;;;3.78;2.45;;;;;;;20.25;43.14;93801.47;6043770;23;20014;-94
2023/10/08 04:41:17;;;;;;;3.47;2.45;;;;;;;20.24;43.37;93791.75;6067144;23;20404;-94
2023/10/08 04:43:42;;;;;;;2.83;2.22;;;;;;;20.23;43.38;93793.00;6067864;23;20026;-95
2023/10/08 04:48:52;;;;;;;4.13;2.58;;;;;;;20.25;43.39;93791.22;6070235;23;20037;-95
2023/10/08 04:51:21;;;;;;;5.35;2.40;;;;;;;20.21;43.44;93790.75;6066519;23;20050;-94
2023/10/08 04:53:47;;;;;;;4.25;2.40;;;;;;;20.22;43.44;93786.75;6067927;23;20019;-94
2023/10/08 04:56:19;;;;;;;3.35;2.00;;;;;;;20.24;43.24;93791.75;6066835;23;20034;-95
2023/10/08 04:58:48;;;;;;;5.20;2.67;;;;;;;20.24;43.24;93792.50;6070185;23;20026;-94
2023/10/08 05:01:17;;;;;;;3.33;1.98;;;;;;;20.23;43.21;93801.97;6067338;23;20084;-94
2023/10/08 05:04:07;;;;;;;4.05;2.38;;;;;;;20.22;43.37;93803.22;6066778;23;20026;-94
2023/10/08 05:12:10;;;;;;;3.47;2.13;;;;;;;20.26;43.41;93811.94;6070092;23;20026;-93
2023/10/08 05:17:11;;;;;;;4.00;2.47;;;;;;;20.27;43.29;93809.94;6067593;23;20026;-93
2023/10/08 05:22:43;;;;;;;3.95;2.13;;;;;;;20.23;43.19;93820.44;6094758;23;20022;-92
2023/10/08 05:38:16;;;;;;;3.38;2.38;;;;;;;20.22;43.37;93819.72;6096011;23;20068;-94
2023/10/08 05:43:48;;;;;;;6.75;2.67;;;;;;;20.26;43.39;93841.41;6098252;23;20046;-96
2023/10/08 06:02:27;;;;;;;3.42;1.77;;;;;;;20.31;43.33;93835.84;6059539;23;20712;-94
2023/10/08 06:05:09;;;;;;;3.15;1.90;;;;;;;20.26;43.41;93836.66;6013490;23;20074;-93
2023/10/08 06:08:11;;;;;;;4.50;2.05;;;;;;;20.28;43.40;93830.66;6016362;23;20053;-94
2023/10/08 06:13:09;;;;;;;3.45;1.98;;;;;;;20.29;43.26;93856.84;6038316;23;20022;-94
2023/10/08 06:18:19;;;;;;;3.72;2.28;;;;;;;20.27;43.53;93868.34;6037679;23;20443;-93
2023/10/08 06:20:45;;;;;;;3.25;2.08;;;;;;;20.31;43.41;93857.06;6037240;23;20030;-95
2023/10/08 06:23:18;;;;;;;3.10;1.90;;;;;;;20.31;43.49;93870.81;6085231;23;20017;-93
2023/10/08 06:25:46;;;;;;;4.15;2.25;;;;;;;20.33;43.31;93866.28;6072074;23;20478;-94
2023/10/08 06:28:12;;;;;;;3.00;1.75;;;;;;;20.33;43.38;93862.81;6047917;23;20088;-94
2023/10/08 06:30:40;;;;;;;2.90;1.90;;;;;;;20.34;43.24;93856.06;6071577;23;20033;-95
2023/10/08 06:33:07;;;;;;;3.38;2.08;;;;;;;20.33;43.27;93863.56;6084582;23;20112;-94
2023/10/08 06:35:34;;;;;;;3.10;2.05;;;;;;;20.33;43.35;93869.03;6073247;23;20018;-94
2023/10/08 06:38:01;;;;;;;3.72;2.30;;;;;;;20.35;43.30;93868.53;6098180;23;20022;-94
2023/10/08 06:43:21;;;;;;;3.20;1.92;;;;;;;20.37;43.41;93864.03;6097897;23;20069;-94
2023/10/08 06:45:47;;;;;;;2.42;1.70;;;;;;;20.35;43.25;93863.75;6074977;23;20029;-96
2023/10/08 06:48:20;;;;;;;3.78;2.05;;;;;;;20.37;43.31;93869.50;6071082;23;20022;-94
2023/10/08 06:50:48;;;;;;;5.05;2.58;;;;;;;20.34;43.57;93856.81;6074871;23;20022;-95
2023/10/08 06:53:13;;;;;;;2.88;1.90;;;;;;;20.33;43.70;93852.56;6072732;23;20018;-93
2023/10/08 06:55:41;;;;;;;2.90;2.00;;;;;;;20.34;43.51;93850.56;6073532;23;20037;-95
2023/10/08 06:58:08;;;;;;;3.40;1.95;;;;;;;20.33;43.58;93851.81;6072565;23;20022;-95
2023/10/08 07:00:46;;;;;;;3.60;2.03;;;;;;;20.34;43.58;93851.31;6074347;23;20014;-94
2023/10/08 07:03:14;;;;;;;3.38;1.88;;;;;;;20.33;43.67;93854.56;6075627;23;20029;-95
2023/10/08 07:05:44;;;;;;;2.97;1.83;;;;;;;20.34;43.63;93856.81;6072775;23;20028;-95
2023/10/08 07:08:13;;;;;;;3.80;2.22;;;;;;;20.32;43.76;93861.31;6071968;23;20028;-93
2023/10/08 07:10:40;;;;;;;3.22;1.60;;;;;;;20.32;43.63;93864.81;6074197;23;20093;-94
2023/10/08 07:13:07;;;;;;;4.38;2.17;;;;;;;20.31;43.65;93857.81;6097001;23;20065;-94
2023/10/08 07:15:38;;;;;;;4.13;2.03;;;;;;;20.32;43.65;93855.81;6073559;23;20014;-95
2023/10/08 07:18:12;;;;;;;4.65;2.15;;;;;;;20.32;43.69;93847.59;6072577;23;20017;-95
2023/10/08 07:20:39;;;;;;;3.72;2.30;;;;;;;20.34;44.04;93856.81;6074307;23;20018;-92
2023/10/08 07:23:24;;;;;;;4.80;2.38;;;;;;;20.33;44.02;93860.81;6071669;23;20089;-94
2023/10/08 07:25:59;;;;;;;4.13;2.00;;;;;;;20.33;43.69;93874.53;6038159;23;20049;-94
2023/10/08 07:28:26;;;;;;;3.67;2.30;;;;;;;20.32;43.72;93870.28;5992530;23;20050;-95
2023/10/08 07:30:52;;;;;;;3.28;1.92;;;;;;;20.35;43.75;93876.78;6039419;23;20015;-92
2023/10/08 07:33:18;;;;;;;3.60;2.10;;;;;;;20.34;43.74;93867.03;5990799;23;20029;-95
2023/10/08 07:35:51;;;;;;;2.85;2.00;;;;;;;20.34;44.01;93861.53;6038446;23;20512;-93
2023/10/08 07:38:17;;;;;;;5.20;2.10;;;;;;;20.33;43.65;93855.31;6036375;23;20057;-94
2023/10/08 07:40:44;;;;;;;3.13;1.88;;;;;;;20.32;44.01;93870.28;6037581;23;20097;-94
2023/10/08 07:43:12;;;;;;;3.78;1.85;;;;;;;20.34;43.86;93867.78;6013710;23;20019;-94
2023/10/08 07:45:38;;;;;;;3.15;2.05;;;;;;;20.32;44.00;93856.56;6014408;23;20014;-94
2023/10/08 07:48:09;;;;;;;4.60;2.03;;;;;;;20.32;43.90;93872.28;6062101;23;20015;-94
2023/10/08 07:50:37;;;;;;;4.45;2.10;;;;;;;20.33;43.95;93871.78;6039383;23;20015;-94
2023/10/08 07:53:04;;;;;;;4.00;2.30;;;;;;;20.35;43.80;93882.25;6037990;23;20393;-94
2023/10/08 07:55:32;;;;;;;3.97;2.35;;;;;;;20.33;44.05;93868.28;6040277;23;20025;-94
2023/10/08 07:57:58;;;;;;;4.35;2.38;;;;;;;20.33;44.01;93869.03;6073740;23;20054;-94
2023/10/08 08:00:25;;;;;;;4.65;2.40;;;;;;;20.33;44.08;93879.28;6073140;23;20056;-93
2023/10/08 08:02:53;;;;;;;4.82;2.40;;;;;;;20.34;44.05;93898.00;6072689;23;20034;-94
2023/10/08 08:05:18;;;;;;;3.90;2.25;;;;;;;20.34;44.14;93889.00;6071356;23;20462;-92
2023/10/08 08:07:49;;;;;;;4.03;2.08;;;;;;;20.35;44.17;93893.97;6071424;23;20029;-93
2023/10/08 08:10:15;;;;;;;2.60;2.10;;;;;;;20.34;44.30;93902.72;6073208;23;20022;-95
2023/10/08 08:12:42;;;;;;;3.38;2.03;;;;;;;20.34;44.22;93902.72;6075603;23;20022;-94
2023/10/08 08:15:16;;;;;;;3.50;2.50;;;;;;;20.32;44.47;93908.72;6072045;23;20033;-94
2023/10/08 08:17:42;;;;;;;3.85;2.28;;;;;;;20.34;44.21;93919.97;6072684;23;20033;-95
2023/10/08 08:20:17;;;;;;;4.05;2.17;;;;;;;20.33;44.21;93910.22;6071571;23;20029;-94
2023/10/08 08:22:54;;;;;;;5.05;2.15;;;;;;;20.35;44.24;93923.44;6074668;23;20029;-94
2023/10/08 08:25:42;;;;;;;4.13;1.95;;;;;;;20.36;44.18;93924.91;6074214;23;20481;-95
2023/10/08 08:28:16;;;;;;;3.97;1.92;;;;;;;20.34;44.33;93911.72;6075320;23;20022;-93
2023/10/08 08:30:46;;;;;;;3.40;2.22;;;;;;;20.35;44.34;93932.41;6074024;23;20025;-94
2023/10/08 08:33:12;;;;;;;2.70;2.03;;;;;;;20.36;44.07;93933.16;6073351;23;20017;-94
2023/10/08 08:35:38;;;;;;;2.97;1.77;;;;;;;20.35;44.44;93934.44;6071551;23;20013;-94
2023/10/08 08:38:05;;;;;;;3.67;1.92;;;;;;;20.33;44.25;93947.91;6072451;23;20049;-92
2023/10/08 08:40:32;;;;;;;4.35;1.98;;;;;;;20.33;44.37;93950.66;6074475;23;20081;-94
2023/10/08 08:43:02;;;;;;;5.78;2.20;;;;;;;20.32;44.13;93949.91;6074004;23;20096;-95
2023/10/08 08:45:31;;;;;;;3.90;2.80;;;;;;;20.33;44.22;93942.44;6072874;23;20045;-92
2023/10/08 08:47:56;;;;;;;3.00;2.22;;;;;;;20.32;44.25;93947.19;6072328;23;20304;-94
2023/10/08 08:50:22;;;;;;;3.80;2.05;;;;;;;20.35;44.30;93945.41;6071440;23;20460;-93
2023/10/08 08:52:48;;;;;;;4.22;2.15;;;;;;;20.34;44.30;93947.41;6072882;23;20010;-93
2023/10/08 08:55:14;;;;;;;3.63;2.13;;;;;;;20.32;44.33;93938.94;6073368;23;20458;-96
2023/10/08 08:57:44;;;;;;;3.67;1.77;;;;;;;20.33;44.41;93947.91;6071995;23;20054;-93
2023/10/08 09:00:12;;;;;;;4.32;2.20;;;;;;;20.34;44.44;93974.13;6071293;23;20054;-94
2023/10/08 09:02:38;;;;;;;5.50;2.38;;;;;;;20.33;44.35;93978.88;6073263;23;20018;-94
2023/10/08 09:05:13;;;;;;;2.78;1.77;;;;;;;20.35;44.57;93987.31;6072211;23;20048;-93
2023/10/08 09:07:54;;;;;;;3.03;2.20;;;;;;;20.34;44.52;93968.63;6073509;23;20085;-93
2023/10/08 09:10:25;;;;;;;2.95;1.95;;;;;;;20.37;44.38;93978.59;6071158;23;20362;-94
2023/10/08 09:12:52;;;;;;;2.58;1.73;;;;;;;20.34;44.51;93954.91;6077015;23;20049;-95
2023/10/08 09:15:18;;;;;;;4.68;2.20;;;;;;;20.36;44.64;93949.63;6072694;23;20450;-94
2023/10/08 09:17:43;;;;;;;6.13;2.08;;;;;;;20.33;44.41;93921.22;6068929;23;20022;-94
2023/10/08 09:20:12;;;;;;;3.47;1.63;;;;;;;20.32;44.50;93916.22;6067887;23;20418;-93
2023/10/08 09:22:40;;;;;;;2.80;1.70;;;;;;;20.31;44.47;93912.72;6069791;23;20046;-94
2023/10/08 09:25:07;;;;;;;4.40;2.00;;;;;;;20.32;44.61;93908.72;6068820;23;20072;-93
2023/10/08 09:27:32;;;;;;;4.90;2.15;;;;;;;20.31;44.48;93922.97;6069689;23;20046;-95
2023/10/08 09:29:59;;;;;;;3.50;2.22;;;;;;;20.32;44.53;93922.47;6068363;23;20390;-94
2023/10/08 09:32:24;;;;;;;4.88;2.42;;;;;;;20.32;44.65;93941.69;6044907;23;20458;-95
2023/10/08 09:34:51;;;;;;;3.42;2.20;;;;;;;20.35;44.25;93942.66;6069027;23;20073;-94
2023/10/08 09:37:17;;;;;;;3.03;1.77;;;;;;;20.33;44.59;93970.63;6066119;23;20019;-95
2023/10/08 09:39:45;;;;;;;2.95;1.70;;;;;;;20.32;44.53;93993.84;6068824;23;20026;-95
2023/10/08 09:42:11;;;;;;;3.25;1.83;;;;;;;20.32;44.60;94012.31;6066474;23;20030;-95
2023/10/08 09:44:37;;;;;;;4.35;2.15;;;;;;;20.34;44.63;94005.06;6068065;23;20390;-93
2023/10/08 09:47:05;;;;;;;4.63;2.08;;;;;;;20.34;44.72;94007.06;6043751;23;20022;-96
2023/10/08 09:49:43;;;;;;;3.33;2.00;;;;;;;20.33;44.73;94000.84;6066067;23;20078;-95
2023/10/08 09:52:10;;;;;;;3.42;1.95;;;;;;;20.35;44.64;94000.31;6041606;23;20022;-94
2023/10/08 09:54:53;;;;;;;3.20;2.00;;;;;;;20.35;44.56;93992.81;6044317;23;20042;-95
2023/10/08 09:57:19;;;;;;;2.90;1.90;;;;;;;20.33;44.91;94011.06;6066666;23;20026;-95
2023/10/08 09:59:44;;;;;;;2.95;1.83;;;;;;;20.35;44.72;94003.06;6067038;23;20027;-96
2023/10/08 10:02:10;;;;;;;3.75;2.13;;;;;;;20.36;44.78;94004.53;6066000;23;20271;-94
2023/10/08 10:04:36;;;;;;;4.18;2.03;;;;;;;20.35;44.88;94019.56;6043382;23;20078;-94
2023/10/08 10:07:12;;;;;;;4.45;2.38;;;;;;;20.34;44.85;94016.06;6042487;23;20018;-93
2023/10/08 10:09:38;;;;;;;3.50;1.90;;;;;;;20.32;44.92;94018.56;6068658;23;20018;-93
2023/10/08 10:12:09;;;;;;;3.05;2.17;;;;;;;20.32;44.85;94001.34;6044848;23;20018;-95
2023/10/08 10:14:47;;;;;;;4.38;2.17;;;;;;;20.32;44.72;94018.56;6071141;23;20338;-95
2023/10/08 10:17:20;;;;;;;3.75;2.25;;;;;;;20.33;45.03;94006.31;6047588;23;20025;-95
2023/10/08 10:19:51;;;;;;;4.00;2.22;;;;;;;20.32;45.02;94023.31;6073560;23;20084;-94
2023/10/08 10:22:30;;;;;;;4.05;2.40;;;;;;;20.34;45.05;94026.28;6071996;23;20399;-94
2023/10/08 10:25:03;;;;;;;4.15;2.60;;;;;;;20.32;45.04;94026.81;6075452;23;20026;-94
2023/10/08 10:27:29;;;;;;;4.15;2.30;;;;;;;20.33;45.10;94030.28;6073409;23;20028;-93
2023/10/08 10:30:03;;;;;;;3.25;2.03;;;;;;;20.32;45.05;94024.06;6072098;23;20101;-93
2023/10/08 10:32:29;;;;;;;4.45;2.63;;;;;;;20.34;44.91;94012.56;6072922;23;20395;-95
2023/10/08 10:34:54;;;;;;;3.33;2.10;;;;;;;20.34;45.27;93991.34;6073223;23;20041;-94
2023/10/08 10:37:20;;;;;;;4.38;2.50;;;;;;;20.33;45.31;94000.09;6070809;23;20335;-93
2023/10/08 10:39:58;;;;;;;3.50;2.30;;;;;;;20.33;45.17;93991.84;6073480;23;20020;-94
2023/10/08 10:42:26;;;;;;;4.35;2.80;;;;;;;20.33;45.39;93983.63;6072739;23;20454;-95
2023/10/08 10:44:53;;;;;;;5.18;2.47;;;;;;;20.33;45.37;93992.59;6073371;23;20459;-95
2023/10/08 10:52:44;;;;;;;4.60;2.30;;;;;;;20.32;45.29;94004.09;6096402;23;20041;-94
2023/10/08 10:57:41;;;;;;;5.40;2.58;;;;;;;20.35;45.60;94019.56;6097392;23;20053;-95
2023/10/08 11:00:57;;;;;;;3.42;2.58;;;;;;;20.33;45.41;94011.81;6071955;23;20022;-93
2023/10/08 11:02:59;;;;;;;3.70;2.38;;;;;;;20.32;45.49;94018.56;6090981;23;20022;-94
2023/10/08 11:05:28;;;;;;;3.35;2.00;;;;;;;20.32;45.49;94026.81;6073280;23;20030;-93
2023/10/08 11:08:00;;;;;;;3.47;1.92;;;;;;;20.30;45.53;94021.06;6073086;23;20076;-93
2023/10/08 11:10:27;;;;;;;5.03;2.13;;;;;;;20.31;45.56;94025.31;6073355;23;20018;-95
2023/10/08 11:12:54;;;;;;;4.03;2.30;;;;;;;20.33;45.60;94019.31;6044144;23;20410;-95
2023/10/08 11:15:23;;;;;;;3.47;2.35;;;;;;;20.34;45.64;94016.06;6042426;23;20026;-94
2023/10/08 11:17:50;;;;;;;5.78;3.00;;;;;;;20.31;45.51;94013.56;6020541;23;20147;-94
2023/10/08 11:20:29;;;;;;;3.60;2.33;;;;;;;20.31;45.68;94021.81;6018329;23;20037;-94
2023/10/08 11:23:17;;;;;;;5.22;2.40;;;;;;;20.33;45.69;94013.81;6021578;23;20023;-95
2023/10/08 11:25:53;;;;;;;3.92;2.65;;;;;;;20.34;45.86;94015.31;6051108;23;20109;-94
2023/10/08 11:28:18;;;;;;;3.42;2.75;;;;;;;20.33;45.60;94017.31;6018562;23;20042;-94
2023/10/08 11:30:46;;;;;;;3.50;2.35;;;;;;;20.32;45.66;94028.81;6042719;23;20030;-94
2023/10/08 11:33:15;;;;;;;6.50;2.95;;;;;;;20.34;45.80;94024.28;6019348;23;20022;-95
2023/10/08 11:36:01;;;;;;;5.03;2.75;;;;;;;20.33;45.73;94030.28;6042538;23;20585;-95
2023/10/08 11:38:27;;;;;;;4.45;2.30;;;;;;;20.33;45.91;94020.06;6042691;23;20037;-93
2023/10/08 11:40:57;;;;;;;4.22;2.20;;;;;;;20.33;46.05;94027.53;6019128;23;20026;-94
2023/10/08 11:43:25;;;;;;;4.18;2.17;;;;;;;20.32;45.79;94028.81;6027722;23;20403;-93
2023/10/08 11:45:52;;;;;;;4.35;2.78;;;;;;;20.32;45.94;94017.81;6073228;23;20045;-94
2023/10/08 11:48:21;;;;;;;3.22;2.03;;;;;;;20.32;45.90;94021.31;6070866;23;20017;-95
2023/10/08 11:50:50;;;;;;;3.33;2.28;;;;;;;20.35;45.68;94030.53;6073287;23;20022;-95
2023/10/08 11:53:16;;;;;;;7.90;2.78;;;;;;;20.35;45.91;94034.00;6096234;23;20074;-93
2023/10/08 11:55:42;;;;;;;3.45;2.03;;;;;;;20.35;46.02;94036.03;6074096;23;20470;-94
2023/10/08 11:58:11;;;;;;;4.03;2.13;;;;;;;20.35;45.95;94023.00;6072389;23;20021;-93
2023/10/08 12:00:46;;;;;;;3.03;2.08;;;;;;;20.35;45.91;94020.28;6073681;23;20018;-95
2023/10/08 12:03:18;;;;;;;3.88;2.30;;;;;;;20.33;46.05;94022.81;6072858;23;20019;-95
2023/10/08 12:05:52;;;;;;;4.03;2.03;;;;;;;20.35;46.23;94017.53;6071963;23;20368;-95
2023/10/08 12:08:20;;;;;;;4.03;2.25;;;;;;;20.35;46.06;94022.28;6071549;23;20030;-95
2023/10/08 12:10:46;;;;;;;4.68;2.13;;;;;;;20.34;46.00;94007.06;6060870;23;20108;-93
2023/10/08 12:13:12;;;;;;;4.32;2.45;;;;;;;20.35;46.11;94009.28;6071332;23;20018;-95
2023/10/08 12:15:41;;;;;;;3.45;2.22;;;;;;;20.37;45.87;94023.28;6073905;23;20073;-95
2023/10/08 12:18:24;;;;;;;4.03;2.65;;;;;;;20.36;46.08;94021.00;6072440;23;20040;-94
2023/10/08 12:20:50;;;;;;;3.63;2.17;;;;;;;20.36;46.02;94021.75;6076049;23;20054;-94
2023/10/08 12:23:29;;;;;;;4.55;2.35;;;;;;;20.38;46.33;94030.28;6070999;23;20030;-93
2023/10/08 12:25:55;;;;;;;3.92;2.53;;;;;;;20.39;46.23;94034.50;6075808;23;20022;-93
2023/10/08 12:28:24;;;;;;;5.43;3.00;;;;;;;20.39;46.28;94033.75;6071823;23;20075;-93
2023/10/08 12:30:53;;;;;;;3.33;2.22;;;;;;;20.38;46.26;94024.78;6074281;23;20018;-93
2023/10/08 12:33:23;;;;;;;2.92;2.28;;;;;;;20.39;46.27;94031.00;6071608;23;20020;-94
2023/10/08 12:35:58;;;;;;;3.65;2.40;;;;;;;20.38;46.32;94044.00;6073615;23;20021;-95
2023/10/08 12:38:27;;;;;;;4.78;2.28;;;;;;;20.39;46.70;94040.00;6073007;23;20076;-94
2023/10/08 12:40:53;;;;;;;4.22;1.98;;;;;;;20.40;46.72;94046.97;6073434;23;20071;-95
2023/10/08 12:43:20;;;;;;;3.97;2.13;;;;;;;20.38;46.34;94049.50;6071908;23;20024;-94
2023/10/08 12:45:51;;;;;;;3.30;1.90;;;;;;;20.38;46.62;94051.50;6073431;23;20025;-94
2023/10/08 12:48:20;;;;;;;5.18;2.33;;;;;;;20.41;46.34;94056.72;6036421;23;20371;-95
2023/10/08 12:50:52;;;;;;;3.03;1.83;;;;;;;20.40;46.51;94059.97;6037350;23;20097;-93